Terminal Aerodrome Forecast
Issued by NWS Tulsa, OK

Home | Current Version | Previous Version | Text Only | Print | Product List | Glossary Off
Versions: 1 2 3 4 5 6 7 8 9 10 11 12 13 14

617
FTUS44 KTSA 240520
TAFTUL
TAF
KTUL 240520Z 2406/2506 16008KT P6SM BKN060
     FM240900 16008KT P6SM BKN030
     FM241200 17010KT P6SM VCTS OVC015CB PROB30 2415/2421 5SM -TSRA
      OVC008CB
     FM242100 17015G22KT P6SM BKN050=

USA.gov is the U.S. government's official web portal to all federal, state and local government web resources and services.